sensor_id;sensor_type;location;lat;lon;timestamp;temperature;humidity
41944;DHT22;27636;52.610;13.244;2022-12-13T00:03:58;-0.90;99.90
41944;DHT22;27636;52.610;13.244;2022-12-13T00:09:02;-0.80;99.90
41944;DHT22;27636;52.610;13.244;2022-12-13T00:14:06;-0.90;99.90
41944;DHT22;27636;52.610;13.244;2022-12-13T00:19:10;-0.90;99.90
41944;DHT22;27636;52.610;13.244;2022-12-13T00:24:14;-1.00;99.90
41944;DHT22;27636;52.610;13.244;2022-12-13T00:29:17;-0.90;99.90
41944;DHT22;27636;52.610;13.244;2022-12-13T00:34:22;-0.90;99.90
41944;DHT22;27636;52.610;13.244;2022-12-13T00:39:25;-0.90;99.90
41944;DHT22;27636;52.610;13.244;2022-12-13T00:44:29;-0.90;99.90
41944;DHT22;27636;52.610;13.244;2022-12-13T00:49:34;-1.00;99.90
41944;DHT22;27636;52.610;13.244;2022-12-13T00:54:37;-0.90;99.90
41944;DHT22;27636;52.610;13.244;2022-12-13T00:59:40;-0.90;99.90
41944;DHT22;27636;52.610;13.244;2022-12-13T01:04:45;-0.90;99.90
41944;DHT22;27636;52.610;13.244;2022-12-13T01:09:50;-1.00;99.90
41944;DHT22;27636;52.610;13.244;2022-12-13T01:14:54;-0.80;99.90
41944;DHT22;27636;52.610;13.244;2022-12-13T01:20:00;-0.90;99.90
41944;DHT22;27636;52.610;13.244;2022-12-13T01:25:03;-0.80;99.90
41944;DHT22;27636;52.610;13.244;2022-12-13T01:30:08;-0.90;99.90
41944;DHT22;27636;52.610;13.244;2022-12-13T01:35:13;-0.90;99.90
41944;DHT22;27636;52.610;13.244;2022-12-13T01:40:16;-0.90;99.90
41944;DHT22;27636;52.610;13.244;2022-12-13T01:45:24;-0.80;99.90
41944;DHT22;27636;52.610;13.244;2022-12-13T01:50:58;-0.90;99.90
41944;DHT22;27636;52.610;13.244;2022-12-13T01:56:05;-0.90;99.90
41944;DHT22;27636;52.610;13.244;2022-12-13T02:01:10;-1.00;99.90
41944;DHT22;27636;52.610;13.244;2022-12-13T02:06:16;-0.90;99.90
41944;DHT22;27636;52.610;13.244;2022-12-13T02:11:20;-0.90;99.90
41944;DHT22;27636;52.610;13.244;2022-12-13T02:16:36;-0.90;99.90
41944;DHT22;27636;52.610;13.244;2022-12-13T02:21:46;-0.90;99.90
41944;DHT22;27636;52.610;13.244;2022-12-13T02:27:20;-0.90;99.90
41944;DHT22;27636;52.610;13.244;2022-12-13T02:32:38;-0.90;99.90
41944;DHT22;27636;52.610;13.244;2022-12-13T02:37:50;-0.90;99.90
41944;DHT22;27636;52.610;13.244;2022-12-13T02:42:59;-0.90;99.90
41944;DHT22;27636;52.610;13.244;2022-12-13T02:48:07;-0.90;99.90
41944;DHT22;27636;52.610;13.244;2022-12-13T02:53:12;-0.90;99.90
41944;DHT22;27636;52.610;13.244;2022-12-13T02:58:22;-0.80;99.90
41944;DHT22;27636;52.610;13.244;2022-12-13T03:03:36;-0.90;99.90
41944;DHT22;27636;52.610;13.244;2022-12-13T03:08:50;-0.80;99.90
41944;DHT22;27636;52.610;13.244;2022-12-13T03:13:59;-0.90;99.90
41944;DHT22;27636;52.610;13.244;2022-12-13T03:19:08;-1.00;99.90
41944;DHT22;27636;52.610;13.244;2022-12-13T03:24:12;-0.90;99.90
41944;DHT22;27636;52.610;13.244;2022-12-13T03:29:16;-1.00;99.90
41944;DHT22;27636;52.610;13.244;2022-12-13T03:34:28;-0.90;99.90
41944;DHT22;27636;52.610;13.244;2022-12-13T03:39:48;-1.00;99.90
41944;DHT22;27636;52.610;13.244;2022-12-13T03:44:51;-0.90;99.90
41944;DHT22;27636;52.610;13.244;2022-12-13T03:49:55;-0.90;99.90
41944;DHT22;27636;52.610;13.244;2022-12-13T03:55:19;-1.00;99.90
41944;DHT22;27636;52.610;13.244;2022-12-13T04:00:22;-1.00;99.90
41944;DHT22;27636;52.610;13.244;2022-12-13T04:05:27;-1.00;99.90
41944;DHT22;27636;52.610;13.244;2022-12-13T04:10:31;-1.00;99.90
41944;DHT22;27636;52.610;13.244;2022-12-13T04:15:35;-1.10;99.90
41944;DHT22;27636;52.610;13.244;2022-12-13T04:20:39;-0.90;99.90
41944;DHT22;27636;52.610;13.244;2022-12-13T04:25:43;-1.00;99.90
41944;DHT22;27636;52.610;13.244;2022-12-13T04:30:46;-0.90;99.90
41944;DHT22;27636;52.610;13.244;2022-12-13T04:35:56;-0.90;99.90
41944;DHT22;27636;52.610;13.244;2022-12-13T04:41:04;-1.00;99.90
41944;DHT22;27636;52.610;13.244;2022-12-13T04:46:08;-1.00;99.90
41944;DHT22;27636;52.610;13.244;2022-12-13T04:51:13;-0.90;99.90
41944;DHT22;27636;52.610;13.244;2022-12-13T04:56:18;-1.00;99.90
41944;DHT22;27636;52.610;13.244;2022-12-13T05:01:21;-1.10;99.90
41944;DHT22;27636;52.610;13.244;2022-12-13T05:06:26;-1.10;99.90
41944;DHT22;27636;52.610;13.244;2022-12-13T05:11:30;-1.00;99.90
41944;DHT22;27636;52.610;13.244;2022-12-13T05:16:37;-0.90;99.90
41944;DHT22;27636;52.610;13.244;2022-12-13T05:21:42;-1.00;99.90
41944;DHT22;27636;52.610;13.244;2022-12-13T05:26:45;-1.00;99.90
41944;DHT22;27636;52.610;13.244;2022-12-13T05:31:49;-1.00;99.90
41944;DHT22;27636;52.610;13.244;2022-12-13T05:36:55;-0.90;99.90
41944;DHT22;27636;52.610;13.244;2022-12-13T05:41:58;-1.00;99.90
41944;DHT22;27636;52.610;13.244;2022-12-13T05:47:04;-1.20;99.90
41944;DHT22;27636;52.610;13.244;2022-12-13T05:52:15;-1.10;99.90
41944;DHT22;27636;52.610;13.244;2022-12-13T05:57:19;-1.00;99.90
41944;DHT22;27636;52.610;13.244;2022-12-13T06:02:22;-1.00;99.90
41944;DHT22;27636;52.610;13.244;2022-12-13T06:07:27;-0.90;99.90
41944;DHT22;27636;52.610;13.244;2022-12-13T06:12:31;-1.20;99.90
41944;DHT22;27636;52.610;13.244;2022-12-13T06:17:45;-1.00;99.90
41944;DHT22;27636;52.610;13.244;2022-12-13T06:22:49;-1.00;99.90
41944;DHT22;27636;52.610;13.244;2022-12-13T06:27:53;-1.10;99.90
41944;DHT22;27636;52.610;13.244;2022-12-13T06:32:56;-1.10;99.90
41944;DHT22;27636;52.610;13.244;2022-12-13T06:38:01;-1.20;99.90
41944;DHT22;27636;52.610;13.244;2022-12-13T06:43:04;-1.10;99.90
41944;DHT22;27636;52.610;13.244;2022-12-13T06:48:07;-1.30;99.90
41944;DHT22;27636;52.610;13.244;2022-12-13T06:53:12;-1.20;99.90
41944;DHT22;27636;52.610;13.244;2022-12-13T06:58:15;-1.20;99.90
41944;DHT22;27636;52.610;13.244;2022-12-13T07:03:18;-1.30;99.90
41944;DHT22;27636;52.610;13.244;2022-12-13T07:08:24;-1.30;99.90
41944;DHT22;27636;52.610;13.244;2022-12-13T07:13:31;-1.20;99.90
41944;DHT22;27636;52.610;13.244;2022-12-13T07:18:39;-1.20;99.90
41944;DHT22;27636;52.610;13.244;2022-12-13T07:23:45;-1.30;99.90
41944;DHT22;27636;52.610;13.244;2022-12-13T07:28:56;-1.30;99.90
41944;DHT22;27636;52.610;13.244;2022-12-13T07:34:00;-1.10;99.90
41944;DHT22;27636;52.610;13.244;2022-12-13T07:39:05;-1.30;99.90
41944;DHT22;27636;52.610;13.244;2022-12-13T07:44:08;-1.30;99.90
41944;DHT22;27636;52.610;13.244;2022-12-13T07:49:12;-1.20;99.90
41944;DHT22;27636;52.610;13.244;2022-12-13T07:54:17;-1.30;99.90
41944;DHT22;27636;52.610;13.244;2022-12-13T07:59:21;-1.30;99.90
41944;DHT22;27636;52.610;13.244;2022-12-13T08:04:30;-1.20;99.90
41944;DHT22;27636;52.610;13.244;2022-12-13T08:09:42;-1.40;99.90
41944;DHT22;27636;52.610;13.244;2022-12-13T08:14:54;-1.30;99.90
41944;DHT22;27636;52.610;13.244;2022-12-13T08:19:57;-1.30;99.90
41944;DHT22;27636;52.610;13.244;2022-12-13T08:25:02;-1.20;99.90
41944;DHT22;27636;52.610;13.244;2022-12-13T08:30:09;-1.20;99.90
41944;DHT22;27636;52.610;13.244;2022-12-13T08:35:13;-0.90;99.90
41944;DHT22;27636;52.610;13.244;2022-12-13T08:40:18;-1.00;99.90
41944;DHT22;27636;52.610;13.244;2022-12-13T08:45:22;-0.80;99.90
41944;DHT22;27636;52.610;13.244;2022-12-13T08:50:29;-0.70;99.90
41944;DHT22;27636;52.610;13.244;2022-12-13T08:55:35;-0.70;99.90
41944;DHT22;27636;52.610;13.244;2022-12-13T09:00:39;-0.70;99.90
41944;DHT22;27636;52.610;13.244;2022-12-13T09:05:44;-0.70;99.90
41944;DHT22;27636;52.610;13.244;2022-12-13T09:10:56;-0.70;99.90
41944;DHT22;27636;52.610;13.244;2022-12-13T09:16:03;-0.80;99.90
41944;DHT22;27636;52.610;13.244;2022-12-13T09:21:16;-0.70;99.90
41944;DHT22;27636;52.610;13.244;2022-12-13T09:26:34;-0.80;99.90
41944;DHT22;27636;52.610;13.244;2022-12-13T09:31:40;-0.70;99.90
41944;DHT22;27636;52.610;13.244;2022-12-13T09:36:44;-0.60;99.90
41944;DHT22;27636;52.610;13.244;2022-12-13T09:41:50;-0.60;99.90
41944;DHT22;27636;52.610;13.244;2022-12-13T09:47:11;-0.70;99.90
41944;DHT22;27636;52.610;13.244;2022-12-13T09:52:18;-0.60;99.90
41944;DHT22;27636;52.610;13.244;2022-12-13T09:57:28;-0.40;99.90
41944;DHT22;27636;52.610;13.244;2022-12-13T10:02:41;-0.30;99.90
41944;DHT22;27636;52.610;13.244;2022-12-13T10:07:45;-0.40;99.90
41944;DHT22;27636;52.610;13.244;2022-12-13T10:12:53;-0.50;99.90
41944;DHT22;27636;52.610;13.244;2022-12-13T10:18:02;-0.50;99.90
41944;DHT22;27636;52.610;13.244;2022-12-13T10:23:06;-0.50;99.90
41944;DHT22;27636;52.610;13.244;2022-12-13T10:28:32;-0.50;99.90
41944;DHT22;27636;52.610;13.244;2022-12-13T10:33:37;-0.40;99.90
41944;DHT22;27636;52.610;13.244;2022-12-13T10:38:45;-0.40;99.90
41944;DHT22;27636;52.610;13.244;2022-12-13T10:44:13;-0.30;99.90
41944;DHT22;27636;52.610;13.244;2022-12-13T10:49:21;-0.30;99.90
41944;DHT22;27636;52.610;13.244;2022-12-13T10:54:27;-0.30;99.90
41944;DHT22;27636;52.610;13.244;2022-12-13T10:59:52;-0.20;99.90
41944;DHT22;27636;52.610;13.244;2022-12-13T11:04:56;-0.10;99.90
41944;DHT22;27636;52.610;13.244;2022-12-13T11:10:19;-0.10;99.90
41944;DHT22;27636;52.610;13.244;2022-12-13T11:15:33;-0.10;99.90
41944;DHT22;27636;52.610;13.244;2022-12-13T11:20:48;0.00;99.90
41944;DHT22;27636;52.610;13.244;2022-12-13T11:25:58;-0.10;99.90
41944;DHT22;27636;52.610;13.244;2022-12-13T11:31:10;0.00;99.90
41944;DHT22;27636;52.610;13.244;2022-12-13T11:36:24;0.10;99.90
41944;DHT22;27636;52.610;13.244;2022-12-13T11:41:34;0.20;99.90
41944;DHT22;27636;52.610;13.244;2022-12-13T11:46:42;0.30;99.90
41944;DHT22;27636;52.610;13.244;2022-12-13T11:51:53;0.30;99.90
41944;DHT22;27636;52.610;13.244;2022-12-13T11:56:59;0.30;99.90
41944;DHT22;27636;52.610;13.244;2022-12-13T12:02:15;0.10;99.90
41944;DHT22;27636;52.610;13.244;2022-12-13T12:07:26;0.00;99.90
41944;DHT22;27636;52.610;13.244;2022-12-13T12:12:36;0.10;99.90
41944;DHT22;27636;52.610;13.244;2022-12-13T12:17:44;0.00;99.90
41944;DHT22;27636;52.610;13.244;2022-12-13T12:22:52;0.10;99.90
41944;DHT22;27636;52.610;13.244;2022-12-13T12:28:06;0.20;99.90
41944;DHT22;27636;52.610;13.244;2022-12-13T12:33:22;0.20;99.90
41944;DHT22;27636;52.610;13.244;2022-12-13T12:38:55;0.20;99.90
41944;DHT22;27636;52.610;13.244;2022-12-13T12:44:08;0.20;99.90
41944;DHT22;27636;52.610;13.244;2022-12-13T12:49:46;0.30;99.90
41944;DHT22;27636;52.610;13.244;2022-12-13T12:54:57;0.20;99.90
41944;DHT22;27636;52.610;13.244;2022-12-13T13:00:10;0.20;99.90
41944;DHT22;27636;52.610;13.244;2022-12-13T13:05:19;0.10;99.90
41944;DHT22;27636;52.610;13.244;2022-12-13T13:10:24;0.00;99.90
41944;DHT22;27636;52.610;13.244;2022-12-13T13:15:52;0.00;99.90
41944;DHT22;27636;52.610;13.244;2022-12-13T13:26:38;-0.10;99.90
41944;DHT22;27636;52.610;13.244;2022-12-13T13:31:55;-0.10;99.90
41944;DHT22;27636;52.610;13.244;2022-12-13T13:37:26;0.00;99.90
41944;DHT22;27636;52.610;13.244;2022-12-13T13:42:31;0.00;99.90
41944;DHT22;27636;52.610;13.244;2022-12-13T13:47:40;-0.10;99.90
41944;DHT22;27636;52.610;13.244;2022-12-13T13:52:54;-0.20;99.90
41944;DHT22;27636;52.610;13.244;2022-12-13T14:09:46;-0.30;99.90
41944;DHT22;27636;52.610;13.244;2022-12-13T14:15:22;-0.60;99.90
41944;DHT22;27636;52.610;13.244;2022-12-13T14:20:44;-0.50;99.90
41944;DHT22;27636;52.610;13.244;2022-12-13T14:26:02;-0.50;99.90
41944;DHT22;27636;52.610;13.244;2022-12-13T14:31:15;-0.60;99.90
41944;DHT22;27636;52.610;13.244;2022-12-13T14:43:23;-0.60;99.90
41944;DHT22;27636;52.610;13.244;2022-12-13T14:48:33;-0.90;99.90
41944;DHT22;27636;52.610;13.244;2022-12-13T14:53:38;-0.90;99.90
41944;DHT22;27636;52.610;13.244;2022-12-13T14:58:52;-0.90;99.90
41944;DHT22;27636;52.610;13.244;2022-12-13T15:04:15;-1.00;99.90
41944;DHT22;27636;52.610;13.244;2022-12-13T15:09:19;-1.10;99.90
41944;DHT22;27636;52.610;13.244;2022-12-13T15:14:23;-1.10;99.90
41944;DHT22;27636;52.610;13.244;2022-12-13T15:19:29;-1.20;99.90
41944;DHT22;27636;52.610;13.244;2022-12-13T15:24:42;-1.30;99.90
41944;DHT22;27636;52.610;13.244;2022-12-13T15:30:01;-1.40;99.90
41944;DHT22;27636;52.610;13.244;2022-12-13T15:35:15;-1.60;99.90
41944;DHT22;27636;52.610;13.244;2022-12-13T15:40:19;-1.90;99.90
41944;DHT22;27636;52.610;13.244;2022-12-13T15:45:24;-2.20;99.90
41944;DHT22;27636;52.610;13.244;2022-12-13T15:50:39;-2.40;99.90
41944;DHT22;27636;52.610;13.244;2022-12-13T15:55:50;-2.80;99.90
41944;DHT22;27636;52.610;13.244;2022-12-13T16:00:54;-3.10;99.90
41944;DHT22;27636;52.610;13.244;2022-12-13T16:05:58;-3.30;99.90
41944;DHT22;27636;52.610;13.244;2022-12-13T16:11:05;-3.30;99.90
41944;DHT22;27636;52.610;13.244;2022-12-13T16:16:21;-3.70;99.90
41944;DHT22;27636;52.610;13.244;2022-12-13T16:21:30;-3.80;99.90
41944;DHT22;27636;52.610;13.244;2022-12-13T16:26:34;-3.90;99.90
41944;DHT22;27636;52.610;13.244;2022-12-13T16:31:37;-4.00;99.90
41944;DHT22;27636;52.610;13.244;2022-12-13T16:36:42;-4.10;99.90
41944;DHT22;27636;52.610;13.244;2022-12-13T16:41:49;-4.20;99.90
41944;DHT22;27636;52.610;13.244;2022-12-13T16:46:53;-4.30;99.90
41944;DHT22;27636;52.610;13.244;2022-12-13T16:52:17;-4.30;99.90
41944;DHT22;27636;52.610;13.244;2022-12-13T16:57:22;-4.40;99.90
41944;DHT22;27636;52.610;13.244;2022-12-13T17:02:25;-4.40;99.90
41944;DHT22;27636;52.610;13.244;2022-12-13T17:07:30;-4.50;99.90
41944;DHT22;27636;52.610;13.244;2022-12-13T17:12:33;-4.50;99.90
41944;DHT22;27636;52.610;13.244;2022-12-13T17:17:37;-4.60;99.90
41944;DHT22;27636;52.610;13.244;2022-12-13T17:22:43;-4.70;99.90
41944;DHT22;27636;52.610;13.244;2022-12-13T17:27:47;-4.70;99.90
41944;DHT22;27636;52.610;13.244;2022-12-13T17:32:50;-4.70;99.90
41944;DHT22;27636;52.610;13.244;2022-12-13T17:37:55;-4.60;99.90
41944;DHT22;27636;52.610;13.244;2022-12-13T17:42:58;-4.70;99.90
41944;DHT22;27636;52.610;13.244;2022-12-13T17:48:01;-4.70;99.90
41944;DHT22;27636;52.610;13.244;2022-12-13T17:53:06;-4.70;99.90
41944;DHT22;27636;52.610;13.244;2022-12-13T17:58:09;-4.90;99.90
41944;DHT22;27636;52.610;13.244;2022-12-13T18:03:13;-5.00;99.90
41944;DHT22;27636;52.610;13.244;2022-12-13T18:08:17;-5.10;99.90
41944;DHT22;27636;52.610;13.244;2022-12-13T18:13:21;-5.10;99.90
41944;DHT22;27636;52.610;13.244;2022-12-13T18:18:25;-5.10;99.90
41944;DHT22;27636;52.610;13.244;2022-12-13T18:23:31;-5.20;99.90
41944;DHT22;27636;52.610;13.244;2022-12-13T18:28:35;-5.20;99.90
41944;DHT22;27636;52.610;13.244;2022-12-13T18:33:39;-5.10;99.90
41944;DHT22;27636;52.610;13.244;2022-12-13T18:38:51;-5.10;99.90
41944;DHT22;27636;52.610;13.244;2022-12-13T18:43:56;-5.00;99.90
41944;DHT22;27636;52.610;13.244;2022-12-13T18:49:02;-5.00;99.90
41944;DHT22;27636;52.610;13.244;2022-12-13T18:54:07;-5.10;99.90
41944;DHT22;27636;52.610;13.244;2022-12-13T18:59:10;-5.20;99.90
41944;DHT22;27636;52.610;13.244;2022-12-13T19:04:14;-5.30;99.90
41944;DHT22;27636;52.610;13.244;2022-12-13T19:09:19;-5.40;99.90
41944;DHT22;27636;52.610;13.244;2022-12-13T19:14:22;-5.40;99.90
41944;DHT22;27636;52.610;13.244;2022-12-13T19:19:29;-5.40;99.90
41944;DHT22;27636;52.610;13.244;2022-12-13T19:24:33;-5.50;99.90
41944;DHT22;27636;52.610;13.244;2022-12-13T19:29:37;-5.60;99.90
41944;DHT22;27636;52.610;13.244;2022-12-13T19:34:40;-5.60;99.90
41944;DHT22;27636;52.610;13.244;2022-12-13T19:39:45;-5.50;99.90
41944;DHT22;27636;52.610;13.244;2022-12-13T19:44:48;-5.60;99.90
41944;DHT22;27636;52.610;13.244;2022-12-13T19:49:51;-5.60;99.90
41944;DHT22;27636;52.610;13.244;2022-12-13T19:54:57;-5.60;99.90
41944;DHT22;27636;52.610;13.244;2022-12-13T20:00:00;-5.80;99.90
41944;DHT22;27636;52.610;13.244;2022-12-13T20:05:04;-5.80;99.90
41944;DHT22;27636;52.610;13.244;2022-12-13T20:10:10;-5.80;99.90
41944;DHT22;27636;52.610;13.244;2022-12-13T20:15:13;-5.70;99.90
41944;DHT22;27636;52.610;13.244;2022-12-13T20:20:17;-5.60;99.90
41944;DHT22;27636;52.610;13.244;2022-12-13T20:25:22;-5.40;99.90
41944;DHT22;27636;52.610;13.244;2022-12-13T20:30:25;-5.30;99.90
41944;DHT22;27636;52.610;13.244;2022-12-13T20:35:29;-5.30;99.90
41944;DHT22;27636;52.610;13.244;2022-12-13T20:40:35;-5.30;99.90
41944;DHT22;27636;52.610;13.244;2022-12-13T20:45:39;-5.50;99.90
41944;DHT22;27636;52.610;13.244;2022-12-13T20:50:42;-5.50;99.90
41944;DHT22;27636;52.610;13.244;2022-12-13T20:55:54;-5.60;99.90
41944;DHT22;27636;52.610;13.244;2022-12-13T21:00:58;-5.70;99.90
41944;DHT22;27636;52.610;13.244;2022-12-13T21:06:02;-5.80;99.90
41944;DHT22;27636;52.610;13.244;2022-12-13T21:11:08;-5.90;99.90
41944;DHT22;27636;52.610;13.244;2022-12-13T21:16:28;-6.00;99.90
41944;DHT22;27636;52.610;13.244;2022-12-13T21:21:33;-6.00;99.90
41944;DHT22;27636;52.610;13.244;2022-12-13T21:26:38;-5.90;99.90
41944;DHT22;27636;52.610;13.244;2022-12-13T21:31:43;-5.90;99.90
41944;DHT22;27636;52.610;13.244;2022-12-13T21:36:51;-6.00;99.90
41944;DHT22;27636;52.610;13.244;2022-12-13T21:41:56;-6.10;99.90
41944;DHT22;27636;52.610;13.244;2022-12-13T21:46:59;-6.10;99.90
41944;DHT22;27636;52.610;13.244;2022-12-13T21:52:18;-6.20;99.90
41944;DHT22;27636;52.610;13.244;2022-12-13T21:57:23;-6.30;99.90
41944;DHT22;27636;52.610;13.244;2022-12-13T22:02:45;-6.40;99.90
41944;DHT22;27636;52.610;13.244;2022-12-13T22:07:49;-6.40;99.90
41944;DHT22;27636;52.610;13.244;2022-12-13T22:12:54;-6.30;99.90
41944;DHT22;27636;52.610;13.244;2022-12-13T22:17:59;-6.30;99.90
41944;DHT22;27636;52.610;13.244;2022-12-13T22:23:04;-6.30;99.90
41944;DHT22;27636;52.610;13.244;2022-12-13T22:28:10;-6.40;99.90
41944;DHT22;27636;52.610;13.244;2022-12-13T22:33:14;-6.40;99.90
41944;DHT22;27636;52.610;13.244;2022-12-13T22:38:18;-6.30;99.90
41944;DHT22;27636;52.610;13.244;2022-12-13T22:43:23;-6.40;99.90
41944;DHT22;27636;52.610;13.244;2022-12-13T22:48:28;-6.30;99.90
41944;DHT22;27636;52.610;13.244;2022-12-13T22:53:32;-6.40;99.90
41944;DHT22;27636;52.610;13.244;2022-12-13T22:58:39;-6.50;99.90
41944;DHT22;27636;52.610;13.244;2022-12-13T23:03:44;-6.50;99.90
41944;DHT22;27636;52.610;13.244;2022-12-13T23:08:50;-6.50;99.90
41944;DHT22;27636;52.610;13.244;2022-12-13T23:13:57;-6.50;99.90
41944;DHT22;27636;52.610;13.244;2022-12-13T23:19:03;-6.60;99.90
41944;DHT22;27636;52.610;13.244;2022-12-13T23:24:26;-6.50;99.90
41944;DHT22;27636;52.610;13.244;2022-12-13T23:29:34;-6.40;99.90
41944;DHT22;27636;52.610;13.244;2022-12-13T23:34:38;-6.40;99.90
41944;DHT22;27636;52.610;13.244;2022-12-13T23:39:42;-6.50;99.90
41944;DHT22;27636;52.610;13.244;2022-12-13T23:44:48;-6.50;99.90
41944;DHT22;27636;52.610;13.244;2022-12-13T23:49:51;-6.70;99.90
41944;DHT22;27636;52.610;13.244;2022-12-13T23:54:55;-6.70;99.90
